Time,TemperatureF,DewpointF,PressureIn,WindDirection,WindDirectionDegrees,WindSpeedMPH,WindSpeedGustMPH,Humidity,HourlyPrecipIn,Conditions,Clouds,dailyrainin,SoftwareType,DateUTC
2013-02-11 00:00:00,28.4,21.8,28.26,WNW,292,26.9,35.4,76,0.00,,,0.00,VWS V14.01,2013-02-11 06:00:00,
2013-02-11 00:05:00,28.6,21.0,28.26,WNW,292,32.2,37.4,73,0.00,,,0.00,VWS V14.01,2013-02-11 06:05:00,
2013-02-11 00:10:00,28.6,20.4,28.26,WNW,292,27.7,34.7,71,0.00,,,0.00,VWS V14.01,2013-02-11 06:10:00,
2013-02-11 00:15:00,28.9,20.7,28.29,WNW,292,26.0,32.4,71,0.00,,,0.00,VWS V14.01,2013-02-11 06:15:00,
2013-02-11 00:20:00,28.8,19.5,28.26,WNW,292,27.7,37.8,68,0.00,,,0.00,VWS V14.01,2013-02-11 06:20:00,
2013-02-11 00:25:00,28.9,19.4,28.26,WNW,292,30.2,37.8,67,0.00,,,0.00,VWS V14.01,2013-02-11 06:25:00,
2013-02-11 00:30:00,28.9,19.4,28.26,West,270,26.6,33.1,67,0.00,,,0.00,VWS V14.01,2013-02-11 06:30:00,
2013-02-11 00:35:00,28.9,18.3,28.26,NW,315,31.1,37.6,64,0.00,,,0.00,VWS V14.01,2013-02-11 06:35:00,
2013-02-11 00:40:00,28.9,19.4,28.26,WNW,292,23.3,37.6,67,0.00,,,0.00,VWS V14.01,2013-02-11 06:40:00,
2013-02-11 00:45:00,28.9,19.4,28.29,WNW,292,27.5,29.3,67,0.00,,,0.00,VWS V14.01,2013-02-11 06:45:00,
2013-02-11 00:50:00,29.1,19.5,28.29,WNW,292,34.7,34.7,67,0.00,,,0.00,VWS V14.01,2013-02-11 06:50:00,
2013-02-11 00:55:00,29.1,20.6,28.29,WNW,292,24.2,34.7,70,0.00,,,0.00,VWS V14.01,2013-02-11 06:55:00,
2013-02-11 01:00:00,29.1,20.9,28.29,WNW,292,32.7,32.7,71,0.00,,,0.00,VWS V14.01,2013-02-11 07:00:00,
2013-02-11 01:05:00,29.1,20.9,28.29,WNW,292,25.1,32.9,71,0.00,,,0.00,VWS V14.01,2013-02-11 07:05:00,
2013-02-11 01:10:00,29.1,20.6,28.29,WNW,292,25.1,25.1,70,0.00,,,0.00,VWS V14.01,2013-02-11 07:10:00,
2013-02-11 01:15:00,28.9,20.7,28.29,WNW,292,26.0,32.4,71,0.00,,,0.00,VWS V14.01,2013-02-11 07:15:00,
2013-02-11 01:20:00,28.9,20.7,28.29,WNW,292,25.7,38.7,71,0.00,,,0.00,VWS V14.01,2013-02-11 07:20:00,
2013-02-11 01:25:00,28.8,21.2,28.29,WNW,292,23.0,25.7,73,0.00,,,0.00,VWS V14.01,2013-02-11 07:25:00,
2013-02-11 01:30:00,28.8,21.2,28.29,West,270,32.2,32.2,73,0.00,,,0.00,VWS V14.01,2013-02-11 07:30:00,
2013-02-11 01:35:00,28.8,21.2,28.29,WNW,292,26.9,32.2,73,0.00,,,0.00,VWS V14.01,2013-02-11 07:35:00,
2013-02-11 01:40:00,28.8,19.9,28.29,WNW,292,32.9,32.9,69,0.00,,,0.00,VWS V14.01,2013-02-11 07:40:00,
2013-02-11 01:45:00,28.9,20.4,28.32,West,270,33.3,33.8,70,0.00,,,0.00,VWS V14.01,2013-02-11 07:45:00,
2013-02-11 01:50:00,28.8,20.6,28.32,WNW,292,32.9,33.3,71,0.00,,,0.00,VWS V14.01,2013-02-11 07:50:00,
2013-02-11 01:55:00,28.6,20.7,28.32,WNW,292,33.1,40.1,72,0.00,,,0.00,VWS V14.01,2013-02-11 07:55:00,
2013-02-11 02:00:00,28.6,20.4,28.32,WNW,292,32.0,33.1,71,0.00,,,0.00,VWS V14.01,2013-02-11 08:00:00,
2013-02-11 02:05:00,28.6,19.4,28.32,WNW,292,30.9,33.1,68,0.00,,,0.00,VWS V14.01,2013-02-11 08:05:00,
2013-02-11 02:10:00,28.6,19.7,28.32,WNW,292,26.9,30.9,69,0.00,,,0.00,VWS V14.01,2013-02-11 08:10:00,
2013-02-11 02:15:00,28.6,20.7,28.35,WNW,292,25.3,35.6,72,0.00,,,0.00,VWS V14.01,2013-02-11 08:15:00,
2013-02-11 02:20:00,28.6,20.0,28.35,WNW,292,26.4,37.8,70,0.00,,,0.00,VWS V14.01,2013-02-11 08:20:00,
2013-02-11 02:25:00,28.6,19.0,28.35,WNW,292,30.4,32.7,67,0.00,,,0.00,VWS V14.01,2013-02-11 08:25:00,
2013-02-11 02:30:00,28.6,19.7,28.35,NW,315,26.0,35.4,69,0.00,,,0.00,VWS V14.01,2013-02-11 08:30:00,
2013-02-11 02:35:00,28.4,19.2,28.35,NW,315,37.4,37.4,68,0.00,,,0.00,VWS V14.01,2013-02-11 08:35:00,
2013-02-11 02:40:00,28.4,18.9,28.35,WNW,292,33.8,39.8,67,0.00,,,0.00,VWS V14.01,2013-02-11 08:40:00,
2013-02-11 02:45:00,28.2,18.0,28.38,WNW,292,30.2,39.4,65,0.00,,,0.00,VWS V14.01,2013-02-11 08:45:00,
2013-02-11 02:50:00,28.2,17.6,28.38,WNW,292,32.2,36.9,64,0.00,,,0.00,VWS V14.01,2013-02-11 08:50:00,
2013-02-11 02:55:00,28.2,19.0,28.38,WNW,292,32.4,36.5,68,0.00,,,0.00,VWS V14.01,2013-02-11 08:55:00,
2013-02-11 03:00:00,28.2,18.7,28.38,WNW,292,34.7,38.3,67,0.00,,,0.00,VWS V14.01,2013-02-11 09:00:00,
2013-02-11 03:05:00,28.0,19.5,28.38,WNW,292,27.1,35.6,70,0.00,,,0.00,VWS V14.01,2013-02-11 09:05:00,
2013-02-11 03:10:00,27.9,19.0,28.38,WNW,292,26.0,34.0,69,0.00,,,0.00,VWS V14.01,2013-02-11 09:10:00,
2013-02-11 03:15:00,27.9,18.7,28.38,WNW,292,27.7,37.4,68,0.00,,,0.00,VWS V14.01,2013-02-11 09:15:00,
2013-02-11 03:20:00,27.9,18.3,28.38,NW,315,37.6,39.4,67,0.00,,,0.00,VWS V14.01,2013-02-11 09:20:00,
2013-02-11 03:25:00,27.7,18.5,28.38,WNW,292,25.3,37.6,68,0.00,,,0.00,VWS V14.01,2013-02-11 09:25:00,
2013-02-11 03:30:00,27.7,18.5,28.41,WNW,292,26.2,33.3,68,0.00,,,0.00,VWS V14.01,2013-02-11 09:30:00,
2013-02-11 03:35:00,27.5,17.6,28.41,WNW,292,30.7,37.6,66,0.00,,,0.00,VWS V14.01,2013-02-11 09:35:00,
2013-02-11 03:40:00,27.5,18.3,28.41,WNW,292,31.1,31.8,68,0.00,,,0.00,VWS V14.01,2013-02-11 09:40:00,
2013-02-11 03:45:00,27.5,17.3,28.41,WNW,292,40.1,40.1,65,0.00,,,0.00,VWS V14.01,2013-02-11 09:45:00,
2013-02-11 03:50:00,27.3,17.5,28.41,WNW,292,30.9,40.1,66,0.00,,,0.00,VWS V14.01,2013-02-11 09:50:00,
2013-02-11 03:55:00,27.3,17.8,28.41,WNW,292,27.7,36.7,67,0.00,,,0.00,VWS V14.01,2013-02-11 09:55:00,
2013-02-11 04:00:00,27.3,17.1,28.41,WNW,292,35.6,37.1,65,0.00,,,0.00,VWS V14.01,2013-02-11 10:00:00,
2013-02-11 04:05:00,27.1,17.0,28.41,West,270,28.6,35.6,65,0.00,,,0.00,VWS V14.01,2013-02-11 10:05:00,
2013-02-11 04:10:00,27.1,17.3,28.41,WNW,292,30.9,40.1,66,0.00,,,0.00,VWS V14.01,2013-02-11 10:10:00,
2013-02-11 04:15:00,27.0,17.5,28.41,WNW,292,30.9,35.6,67,0.00,,,0.00,VWS V14.01,2013-02-11 10:15:00,
2013-02-11 04:20:00,27.0,17.8,28.41,WNW,292,30.2,33.1,68,0.00,,,0.00,VWS V14.01,2013-02-11 10:20:00,
2013-02-11 04:25:00,27.0,17.5,28.41,WNW,292,28.6,34.5,67,0.00,,,0.00,VWS V14.01,2013-02-11 10:25:00,
2013-02-11 04:30:00,26.8,16.6,28.44,WNW,292,32.4,35.1,65,0.00,,,0.00,VWS V14.01,2013-02-11 10:30:00,
2013-02-11 04:35:00,26.8,17.0,28.44,WNW,292,22.2,32.4,66,0.00,,,0.00,VWS V14.01,2013-02-11 10:35:00,
2013-02-11 04:40:00,27.0,16.8,28.44,WNW,292,31.1,33.3,65,0.00,,,0.00,VWS V14.01,2013-02-11 10:40:00,
2013-02-11 04:45:00,26.8,16.6,28.44,WNW,292,26.6,36.9,65,0.00,,,0.00,VWS V14.01,2013-02-11 10:45:00,
2013-02-11 04:50:00,26.8,17.0,28.44,WNW,292,21.5,31.1,66,0.00,,,0.00,VWS V14.01,2013-02-11 10:50:00,
2013-02-11 04:55:00,26.6,17.1,28.44,WNW,292,28.6,31.3,67,0.00,,,0.00,VWS V14.01,2013-02-11 10:55:00,
2013-02-11 05:00:00,26.4,17.0,28.47,WNW,292,25.5,30.9,67,0.00,,,0.00,VWS V14.01,2013-02-11 11:00:00,
2013-02-11 05:05:00,26.4,16.6,28.47,WNW,292,32.2,35.1,66,0.00,,,0.00,VWS V14.01,2013-02-11 11:05:00,
2013-02-11 05:10:00,26.2,16.4,28.47,NW,315,27.7,32.9,66,0.00,,,0.00,VWS V14.01,2013-02-11 11:10:00,
2013-02-11 05:15:00,26.1,16.3,28.47,WNW,292,34.2,34.2,66,0.00,,,0.00,VWS V14.01,2013-02-11 11:15:00,
2013-02-11 05:20:00,26.1,18.0,28.47,WNW,292,25.7,34.2,71,0.00,,,0.00,VWS V14.01,2013-02-11 11:20:00,
2013-02-11 05:25:00,25.9,18.1,28.47,WNW,292,31.8,32.0,72,0.00,,,0.00,VWS V14.01,2013-02-11 11:25:00,
2013-02-11 05:30:00,25.7,17.9,28.50,West,270,30.9,33.3,72,0.00,,,0.00,VWS V14.01,2013-02-11 11:30:00,
2013-02-11 05:35:00,25.7,18.9,28.50,WNW,292,28.9,30.9,75,0.00,,,0.00,VWS V14.01,2013-02-11 11:35:00,
2013-02-11 05:40:00,25.5,18.4,28.50,WNW,292,22.8,29.8,74,0.00,,,0.00,VWS V14.01,2013-02-11 11:40:00,
2013-02-11 05:45:00,25.5,18.7,28.47,WNW,292,24.4,32.4,75,0.00,,,0.00,VWS V14.01,2013-02-11 11:45:00,
2013-02-11 05:50:00,25.5,19.6,28.47,WNW,292,25.1,29.1,78,0.00,,,0.00,VWS V14.01,2013-02-11 11:50:00,
2013-02-11 05:55:00,25.3,19.5,28.47,West,270,26.9,32.0,78,0.00,,,0.00,VWS V14.01,2013-02-11 11:55:00,
2013-02-11 06:00:00,25.2,19.3,28.50,WNW,292,26.6,29.3,78,0.00,,,0.00,VWS V14.01,2013-02-11 12:00:00,
2013-02-11 06:05:00,25.0,19.1,28.50,WNW,292,28.4,30.2,78,0.00,,,0.00,VWS V14.01,2013-02-11 12:05:00,
2013-02-11 06:10:00,25.0,18.5,28.50,NW,315,23.0,28.9,76,0.00,,,0.00,VWS V14.01,2013-02-11 12:10:00,
2013-02-11 06:15:00,25.0,18.2,28.50,WNW,292,24.4,28.9,75,0.00,,,0.00,VWS V14.01,2013-02-11 12:15:00,
2013-02-11 06:20:00,25.0,18.2,28.50,WNW,292,26.0,30.0,75,0.00,,,0.00,VWS V14.01,2013-02-11 12:20:00,
2013-02-11 06:25:00,25.0,17.2,28.50,WNW,292,29.3,35.1,72,0.00,,,0.00,VWS V14.01,2013-02-11 12:25:00,
2013-02-11 06:30:00,24.8,16.4,28.50,West,270,29.8,33.1,70,0.00,,,0.00,VWS V14.01,2013-02-11 12:30:00,
2013-02-11 06:35:00,24.8,15.1,28.50,WNW,292,33.1,33.1,66,0.00,,,0.00,VWS V14.01,2013-02-11 12:35:00,
2013-02-11 06:40:00,24.8,15.1,28.50,WNW,292,26.0,33.1,66,0.00,,,0.00,VWS V14.01,2013-02-11 12:40:00,
2013-02-11 06:45:00,24.8,15.1,28.52,WNW,292,23.5,33.1,66,0.00,,,0.00,VWS V14.01,2013-02-11 12:45:00,
2013-02-11 06:50:00,25.0,14.9,28.52,WNW,292,26.6,26.6,65,0.00,,,0.00,VWS V14.01,2013-02-11 12:50:00,
2013-02-11 06:55:00,25.0,14.5,28.52,WNW,292,25.7,35.8,64,0.00,,,0.00,VWS V14.01,2013-02-11 12:55:00,
2013-02-11 07:00:00,24.8,15.1,28.52,WNW,292,19.2,31.1,66,0.00,,,0.00,VWS V14.01,2013-02-11 13:00:00,
2013-02-11 07:05:00,24.6,14.6,28.52,WNW,292,27.3,30.7,65,0.00,,,0.00,VWS V14.01,2013-02-11 13:05:00,
2013-02-11 07:10:00,24.6,14.9,28.52,WNW,292,34.7,34.7,66,0.00,,,0.00,VWS V14.01,2013-02-11 13:10:00,
2013-02-11 07:15:00,24.4,14.4,28.52,WNW,292,30.9,34.7,65,0.00,,,0.00,VWS V14.01,2013-02-11 13:15:00,
2013-02-11 07:20:00,24.4,14.4,28.52,WNW,292,30.9,30.9,65,0.00,,,0.00,VWS V14.01,2013-02-11 13:20:00,
2013-02-11 07:25:00,24.3,14.2,28.52,WNW,292,30.9,30.9,65,0.00,,,0.00,VWS V14.01,2013-02-11 13:25:00,
2013-02-11 07:30:00,24.1,13.7,28.55,WNW,292,30.9,30.9,64,0.00,,,0.00,VWS V14.01,2013-02-11 13:30:00,
2013-02-11 07:35:00,24.1,13.7,28.55,WNW,292,30.9,30.9,64,0.00,,,0.00,VWS V14.01,2013-02-11 13:35:00,
2013-02-11 07:40:00,24.1,13.0,28.55,WNW,292,30.9,30.9,62,0.00,,,0.00,VWS V14.01,2013-02-11 13:40:00,
2013-02-11 07:45:00,24.3,12.8,28.55,WNW,292,30.9,30.9,61,0.00,,,0.00,VWS V14.01,2013-02-11 13:45:00,
2013-02-11 07:50:00,24.3,13.5,28.55,WNW,292,30.9,30.9,63,0.00,,,0.00,VWS V14.01,2013-02-11 13:50:00,
2013-02-11 07:55:00,24.1,13.3,28.55,WNW,292,30.9,30.9,63,0.00,,,0.00,VWS V14.01,2013-02-11 13:55:00,
2013-02-11 08:00:00,24.4,13.7,28.58,WNW,292,30.9,30.9,63,0.00,,,0.00,VWS V14.01,2013-02-11 14:00:00,
2013-02-11 08:05:00,24.6,13.5,28.58,WNW,292,30.9,30.9,62,0.00,,,0.00,VWS V14.01,2013-02-11 14:05:00,
2013-02-11 08:10:00,25.3,15.6,28.61,WNW,292,0.0,0.0,66,0.00,,,0.00,VWS V14.01,2013-02-11 14:10:00,
2013-02-11 08:15:00,25.3,13.8,28.58,WNW,292,30.9,30.9,61,0.00,,,0.00,VWS V14.01,2013-02-11 14:15:00,
2013-02-11 08:20:00,25.3,13.4,28.58,WNW,292,30.9,30.9,60,0.00,,,0.00,VWS V14.01,2013-02-11 14:20:00,
2013-02-11 08:25:00,25.2,13.2,28.58,WNW,292,30.9,30.9,60,0.00,,,0.00,VWS V14.01,2013-02-11 14:25:00,
2013-02-11 08:30:00,25.0,13.1,28.58,WNW,292,30.9,30.9,60,0.00,,,0.00,VWS V14.01,2013-02-11 14:30:00,
2013-02-11 08:35:00,24.8,12.9,28.58,WNW,292,30.9,30.9,60,0.00,,,0.00,VWS V14.01,2013-02-11 14:35:00,
2013-02-11 08:40:00,25.0,14.2,28.58,WNW,292,30.9,30.9,63,0.00,,,0.00,VWS V14.01,2013-02-11 14:40:00,
2013-02-11 08:45:00,25.0,13.4,28.58,WNW,292,30.9,30.9,61,0.00,,,0.00,VWS V14.01,2013-02-11 14:45:00,
2013-02-11 08:50:00,26.1,15.6,28.61,WNW,292,0.0,0.0,64,0.00,,,0.00,VWS V14.01,2013-02-11 14:50:00,
2013-02-11 08:55:00,25.2,14.4,28.58,WNW,292,30.9,30.9,63,0.00,,,0.00,VWS V14.01,2013-02-11 14:55:00,
2013-02-11 09:00:00,25.3,15.2,28.61,WNW,292,30.9,30.9,65,0.00,,,0.00,VWS V14.01,2013-02-11 15:00:00,
2013-02-11 09:05:00,25.3,15.2,28.61,WNW,292,0.0,30.9,65,0.00,,,0.00,VWS V14.01,2013-02-11 15:05:00,
2013-02-11 09:10:00,25.3,15.6,28.61,WNW,292,0.0,0.0,66,0.00,,,0.00,VWS V14.01,2013-02-11 15:10:00,
2013-02-11 09:15:00,26.1,16.6,28.64,WNW,292,0.0,0.0,67,0.00,,,0.00,VWS V14.01,2013-02-11 15:15:00,
2013-02-11 09:20:00,25.5,15.1,28.61,WNW,292,0.0,0.0,64,0.00,,,0.00,VWS V14.01,2013-02-11 15:20:00,
2013-02-11 09:25:00,25.7,14.9,28.61,WNW,292,0.0,0.0,63,0.00,,,0.00,VWS V14.01,2013-02-11 15:25:00,
2013-02-11 09:30:00,25.7,14.9,28.61,WNW,292,0.0,0.0,63,0.00,,,0.00,VWS V14.01,2013-02-11 15:30:00,
2013-02-11 09:35:00,25.9,15.4,28.61,WNW,292,0.0,0.0,64,0.00,,,0.00,VWS V14.01,2013-02-11 15:35:00,
2013-02-11 09:40:00,26.1,16.6,28.61,WNW,292,0.0,0.0,67,0.00,,,0.00,VWS V14.01,2013-02-11 15:40:00,
2013-02-11 09:45:00,25.9,15.4,28.61,WNW,292,0.0,0.0,64,0.00,,,0.00,VWS V14.01,2013-02-11 15:45:00,
2013-02-11 09:50:00,26.1,15.6,28.61,WNW,292,0.0,0.0,64,0.00,,,0.00,VWS V14.01,2013-02-11 15:50:00,
2013-02-11 09:55:00,25.9,15.4,28.61,WNW,292,0.0,0.0,64,0.00,,,0.00,VWS V14.01,2013-02-11 15:55:00,
2013-02-11 10:00:00,25.9,15.0,28.64,WNW,292,0.0,0.0,63,0.00,,,0.00,VWS V14.01,2013-02-11 16:00:00,
2013-02-11 10:05:00,25.9,15.8,28.64,WNW,292,0.0,0.0,65,0.00,,,0.00,VWS V14.01,2013-02-11 16:05:00,
2013-02-11 10:10:00,25.9,15.4,28.64,WNW,292,0.0,0.0,64,0.00,,,0.00,VWS V14.01,2013-02-11 16:10:00,
2013-02-11 10:15:00,27.5,14.7,28.67,WNW,292,28.0,28.0,58,0.00,,,0.00,VWS V14.01,2013-02-11 16:15:00,
2013-02-11 10:20:00,25.7,14.9,28.64,WNW,292,0.0,0.0,63,0.00,,,0.00,VWS V14.01,2013-02-11 16:20:00,
2013-02-11 10:25:00,25.5,14.3,28.64,WNW,292,0.0,0.0,62,0.00,,,0.00,VWS V14.01,2013-02-11 16:25:00,
2013-02-11 10:30:00,25.9,15.4,28.64,WNW,292,0.0,0.0,64,0.00,,,0.00,VWS V14.01,2013-02-11 16:30:00,
2013-02-11 10:35:00,26.1,15.2,28.64,WNW,292,0.0,0.0,63,0.00,,,0.00,VWS V14.01,2013-02-11 16:35:00,
2013-02-11 10:40:00,26.2,15.7,28.64,WNW,292,0.0,0.0,64,0.00,,,0.00,VWS V14.01,2013-02-11 16:40:00,
2013-02-11 10:45:00,26.2,14.3,28.64,WNW,292,0.0,0.0,60,0.00,,,0.00,VWS V14.01,2013-02-11 16:45:00,
2013-02-11 10:50:00,27.1,17.0,28.67,WNW,292,19.0,28.9,65,0.00,,,0.00,VWS V14.01,2013-02-11 16:50:00,
2013-02-11 10:55:00,26.8,15.5,28.64,WNW,292,0.0,0.0,62,0.00,,,0.00,VWS V14.01,2013-02-11 16:55:00,
2013-02-11 11:00:00,27.0,14.6,28.64,WNW,292,0.0,0.0,59,0.00,,,0.00,VWS V14.01,2013-02-11 17:00:00,
2013-02-11 11:05:00,27.0,14.2,28.64,SSE,158,0.0,0.0,58,0.00,,,0.00,VWS V14.01,2013-02-11 17:05:00,
2013-02-11 11:10:00,27.1,14.7,28.64,SSE,158,0.0,0.0,59,0.00,,,0.00,VWS V14.01,2013-02-11 17:10:00,
2013-02-11 11:15:00,27.5,16.6,28.67,WNW,292,29.5,29.5,63,0.00,,,0.00,VWS V14.01,2013-02-11 17:15:00,
2013-02-11 11:20:00,27.7,15.2,28.67,WNW,292,22.2,30.7,59,0.00,,,0.00,VWS V14.01,2013-02-11 17:20:00,
2013-02-11 11:25:00,27.0,16.4,28.67,WNW,292,27.7,29.8,64,0.00,,,0.00,VWS V14.01,2013-02-11 17:25:00,
2013-02-11 11:30:00,27.5,15.4,28.67,West,270,20.4,29.3,60,0.00,,,0.00,VWS V14.01,2013-02-11 17:30:00,
2013-02-11 11:35:00,27.5,15.8,28.67,WNW,292,22.2,27.7,61,0.00,,,0.00,VWS V14.01,2013-02-11 17:35:00,
2013-02-11 11:40:00,27.3,16.4,28.67,WNW,292,27.3,33.6,63,0.00,,,0.00,VWS V14.01,2013-02-11 17:40:00,
2013-02-11 11:45:00,27.1,15.9,28.67,WNW,292,23.0,30.2,62,0.00,,,0.00,VWS V14.01,2013-02-11 17:45:00,
2013-02-11 11:50:00,27.1,17.0,28.67,WNW,292,19.0,28.9,65,0.00,,,0.00,VWS V14.01,2013-02-11 17:50:00,
2013-02-11 11:55:00,27.0,15.3,28.67,WNW,292,25.5,30.0,61,0.00,,,0.00,VWS V14.01,2013-02-11 17:55:00,
2013-02-11 12:00:00,27.0,15.7,28.67,WNW,292,23.5,33.1,62,0.00,,,0.00,VWS V14.01,2013-02-11 18:00:00,
2013-02-11 12:05:00,27.3,16.0,28.67,WNW,292,17.7,28.6,62,0.00,,,0.00,VWS V14.01,2013-02-11 18:05:00,
2013-02-11 12:10:00,27.9,16.5,28.67,WNW,292,27.7,28.9,62,0.00,,,0.00,VWS V14.01,2013-02-11 18:10:00,
2013-02-11 12:15:00,27.5,16.6,28.67,WNW,292,29.5,29.5,63,0.00,,,0.00,VWS V14.01,2013-02-11 18:15:00,
2013-02-11 12:20:00,27.1,16.6,28.67,WNW,292,25.3,29.5,64,0.00,,,0.00,VWS V14.01,2013-02-11 18:20:00,
2013-02-11 12:25:00,27.0,16.4,28.67,WNW,292,27.7,29.8,64,0.00,,,0.00,VWS V14.01,2013-02-11 18:25:00,
2013-02-11 12:30:00,27.0,16.8,28.67,WNW,292,23.3,29.3,65,0.00,,,0.00,VWS V14.01,2013-02-11 18:30:00,
2013-02-11 12:35:00,27.0,16.1,28.67,WNW,292,27.5,28.9,63,0.00,,,0.00,VWS V14.01,2013-02-11 18:35:00,
2013-02-11 12:40:00,27.1,17.0,28.67,WNW,292,27.1,27.5,65,0.00,,,0.00,VWS V14.01,2013-02-11 18:40:00,
2013-02-11 12:45:00,27.9,15.8,28.67,WNW,292,25.5,33.3,60,0.00,,,0.00,VWS V14.01,2013-02-11 18:45:00,
2013-02-11 12:50:00,27.5,16.9,28.67,WNW,292,23.5,28.9,64,0.00,,,0.00,VWS V14.01,2013-02-11 18:50:00,
2013-02-11 12:55:00,27.9,17.6,28.67,WNW,292,22.6,24.4,65,0.00,,,0.00,VWS V14.01,2013-02-11 18:55:00,
2013-02-11 13:00:00,28.4,18.9,28.67,WNW,292,17.0,28.0,67,0.00,,,0.00,VWS V14.01,2013-02-11 19:00:00,
2013-02-11 13:05:00,27.7,16.4,28.67,WNW,292,25.7,30.0,62,0.00,,,0.00,VWS V14.01,2013-02-11 19:05:00,
2013-02-11 13:10:00,27.9,16.5,28.67,WNW,292,27.7,28.9,62,0.00,,,0.00,VWS V14.01,2013-02-11 19:10:00,
2013-02-11 13:15:00,27.7,16.7,28.67,WNW,292,30.0,30.9,63,0.00,,,0.00,VWS V14.01,2013-02-11 19:15:00,
2013-02-11 13:20:00,27.5,15.8,28.67,WNW,292,26.6,30.0,61,0.00,,,0.00,VWS V14.01,2013-02-11 19:20:00,
2013-02-11 13:25:00,27.9,16.9,28.67,WNW,292,30.4,30.4,63,0.00,,,0.00,VWS V14.01,2013-02-11 19:25:00,
2013-02-11 13:30:00,27.9,15.4,28.67,WNW,292,20.6,30.4,59,0.00,,,0.00,VWS V14.01,2013-02-11 19:30:00,
2013-02-11 13:35:00,28.2,16.5,28.67,WNW,292,20.4,27.5,61,0.00,,,0.00,VWS V14.01,2013-02-11 19:35:00,
2013-02-11 13:40:00,29.1,16.6,28.67,WNW,292,26.4,26.4,59,0.00,,,0.00,VWS V14.01,2013-02-11 19:40:00,
2013-02-11 13:45:00,27.9,15.8,28.67,WNW,292,25.5,33.3,60,0.00,,,0.00,VWS V14.01,2013-02-11 19:45:00,
2013-02-11 13:50:00,28.0,16.7,28.67,WNW,292,23.5,28.0,62,0.00,,,0.00,VWS V14.01,2013-02-11 19:50:00,
2013-02-11 13:55:00,28.6,16.5,28.67,WNW,292,19.9,25.5,60,0.00,,,0.00,VWS V14.01,2013-02-11 19:55:00,
2013-02-11 14:00:00,28.4,18.9,28.67,WNW,292,17.0,28.0,67,0.00,,,0.00,VWS V14.01,2013-02-11 20:00:00,
2013-02-11 14:05:00,28.0,16.3,28.67,WNW,292,21.0,30.9,61,0.00,,,0.00,VWS V14.01,2013-02-11 20:05:00,
2013-02-11 14:10:00,28.4,18.5,28.67,WNW,292,23.7,28.0,66,0.00,,,0.00,VWS V14.01,2013-02-11 20:10:00,
2013-02-11 14:15:00,28.4,17.4,28.70,WNW,292,23.7,25.3,63,0.00,,,0.00,VWS V14.01,2013-02-11 20:15:00,
2013-02-11 14:20:00,28.6,17.6,28.67,WNW,292,23.0,29.1,63,0.00,,,0.00,VWS V14.01,2013-02-11 20:20:00,
2013-02-11 14:25:00,28.6,18.0,28.67,WNW,292,16.6,26.4,64,0.00,,,0.00,VWS V14.01,2013-02-11 20:25:00,
2013-02-11 14:30:00,28.8,16.6,28.67,WNW,292,23.9,27.3,60,0.00,,,0.00,VWS V14.01,2013-02-11 20:30:00,
2013-02-11 14:35:00,28.8,17.0,28.67,WNW,292,24.6,27.1,61,0.00,,,0.00,VWS V14.01,2013-02-11 20:35:00,
2013-02-11 14:40:00,29.1,16.6,28.67,WNW,292,26.4,26.4,59,0.00,,,0.00,VWS V14.01,2013-02-11 20:40:00,
2013-02-11 14:45:00,28.8,16.2,28.67,WNW,292,20.8,26.4,59,0.00,,,0.00,VWS V14.01,2013-02-11 20:45:00,
2013-02-11 14:50:00,28.8,17.4,28.67,WNW,292,22.2,26.0,62,0.00,,,0.00,VWS V14.01,2013-02-11 20:50:00,
2013-02-11 14:55:00,28.6,16.5,28.67,WNW,292,19.9,25.5,60,0.00,,,0.00,VWS V14.01,2013-02-11 20:55:00,
2013-02-11 15:00:00,28.4,17.1,28.70,WNW,292,25.1,26.6,62,0.00,,,0.00,VWS V14.01,2013-02-11 21:00:00,
2013-02-11 15:05:00,28.6,17.2,28.70,WNW,292,20.6,26.6,62,0.00,,,0.00,VWS V14.01,2013-02-11 21:05:00,
2013-02-11 15:10:00,28.6,17.6,28.70,WNW,292,15.9,25.3,63,0.00,,,0.00,VWS V14.01,2013-02-11 21:10:00,
2013-02-11 15:15:00,28.4,17.4,28.70,WNW,292,23.7,25.3,63,0.00,,,0.00,VWS V14.01,2013-02-11 21:15:00,
2013-02-11 15:20:00,28.6,18.0,28.70,WNW,292,17.7,24.6,64,0.00,,,0.00,VWS V14.01,2013-02-11 21:20:00,
2013-02-11 15:25:00,27.1,17.0,28.73,WNW,292,19.2,23.3,65,0.00,,,0.00,VWS V14.01,2013-02-11 21:25:00,
2013-02-11 15:30:00,28.2,16.9,28.70,WNW,292,22.6,28.9,62,0.00,,,0.00,VWS V14.01,2013-02-11 21:30:00,
2013-02-11 15:35:00,28.0,16.0,28.70,WNW,292,16.3,28.0,60,0.00,,,0.00,VWS V14.01,2013-02-11 21:35:00,
2013-02-11 15:40:00,27.0,16.1,28.70,WNW,292,10.7,22.8,63,0.00,,,0.00,VWS V14.01,2013-02-11 21:40:00,
2013-02-11 15:45:00,28.4,18.1,28.70,WNW,292,16.8,24.4,65,0.00,,,0.00,VWS V14.01,2013-02-11 21:45:00,
2013-02-11 15:50:00,28.0,17.5,28.70,WNW,292,19.5,22.2,64,0.00,,,0.00,VWS V14.01,2013-02-11 21:50:00,
2013-02-11 15:55:00,27.9,16.5,28.70,WNW,292,18.8,25.5,62,0.00,,,0.00,VWS V14.01,2013-02-11 21:55:00,
2013-02-11 16:00:00,27.9,16.9,28.70,WNW,292,19.7,25.5,63,0.00,,,0.00,VWS V14.01,2013-02-11 22:00:00,
2013-02-11 16:05:00,27.7,16.7,28.70,WNW,292,21.9,25.1,63,0.00,,,0.00,VWS V14.01,2013-02-11 22:05:00,
2013-02-11 16:10:00,27.7,18.2,28.70,WNW,292,18.8,22.8,67,0.00,,,0.00,VWS V14.01,2013-02-11 22:10:00,
2013-02-11 16:15:00,26.2,17.1,28.73,WNW,292,12.8,19.9,68,0.00,,,0.00,VWS V14.01,2013-02-11 22:15:00,
2013-02-11 16:20:00,27.3,17.5,28.73,WNW,292,23.3,23.3,66,0.00,,,0.00,VWS V14.01,2013-02-11 22:20:00,
2013-02-11 16:25:00,27.1,17.0,28.73,WNW,292,19.2,23.3,65,0.00,,,0.00,VWS V14.01,2013-02-11 22:25:00,
2013-02-11 16:30:00,27.3,17.1,28.70,WNW,292,16.8,20.1,65,0.00,,,0.00,VWS V14.01,2013-02-11 22:30:00,
2013-02-11 16:35:00,27.0,16.4,28.70,WNW,292,22.4,22.4,64,0.00,,,0.00,VWS V14.01,2013-02-11 22:35:00,
2013-02-11 16:40:00,27.0,16.1,28.70,WNW,292,10.7,22.8,63,0.00,,,0.00,VWS V14.01,2013-02-11 22:40:00,
2013-02-11 16:45:00,26.8,16.6,28.73,WNW,292,13.6,19.9,65,0.00,,,0.00,VWS V14.01,2013-02-11 22:45:00,
2013-02-11 16:50:00,26.6,16.4,28.73,WNW,292,13.9,17.5,65,0.00,,,0.00,VWS V14.01,2013-02-11 22:50:00,
2013-02-11 16:55:00,26.6,16.8,28.73,WNW,292,17.7,20.4,66,0.00,,,0.00,VWS V14.01,2013-02-11 22:55:00,
2013-02-11 17:00:00,26.4,16.6,28.73,WNW,292,23.9,23.9,66,0.00,,,0.00,VWS V14.01,2013-02-11 23:00:00,
2013-02-11 17:05:00,26.4,17.0,28.73,West,270,17.2,23.9,67,0.00,,,0.00,VWS V14.01,2013-02-11 23:05:00,
2013-02-11 17:10:00,26.2,17.1,28.73,WNW,292,17.0,24.6,68,0.00,,,0.00,VWS V14.01,2013-02-11 23:10:00,
2013-02-11 17:15:00,26.2,17.1,28.73,WNW,292,12.8,19.9,68,0.00,,,0.00,VWS V14.01,2013-02-11 23:15:00,
2013-02-11 17:20:00,26.1,16.6,28.73,WNW,292,17.5,22.8,67,0.00,,,0.00,VWS V14.01,2013-02-11 23:20:00,
2013-02-11 17:25:00,26.1,16.6,28.73,WNW,292,17.9,19.7,67,0.00,,,0.00,VWS V14.01,2013-02-11 23:25:00,
2013-02-11 17:30:00,25.9,16.1,28.73,WNW,292,15.2,22.2,66,0.00,,,0.00,VWS V14.01,2013-02-11 23:30:00,
2013-02-11 17:35:00,25.9,16.5,28.73,WNW,292,17.5,23.9,67,0.00,,,0.00,VWS V14.01,2013-02-11 23:35:00,
2013-02-11 17:40:00,25.7,16.6,28.73,WNW,292,19.9,24.2,68,0.00,,,0.00,VWS V14.01,2013-02-11 23:40:00,
2013-02-11 17:45:00,25.5,16.8,28.73,West,270,14.5,19.9,69,0.00,,,0.00,VWS V14.01,2013-02-11 23:45:00,
2013-02-11 17:50:00,25.7,16.6,28.73,WNW,292,17.2,19.2,68,0.00,,,0.00,VWS V14.01,2013-02-11 23:50:00,
2013-02-11 17:55:00,25.5,16.1,28.73,WNW,292,15.9,22.2,67,0.00,,,0.00,VWS V14.01,2013-02-11 23:55:00,
2013-02-11 18:00:00,25.5,16.1,28.76,WNW,292,16.8,22.4,67,0.00,,,0.00,VWS V14.01,2013-02-12 00:00:00,
2013-02-11 18:05:00,25.5,15.8,28.76,WNW,292,14.5,24.2,66,0.00,,,0.00,VWS V14.01,2013-02-12 00:05:00,
2013-02-11 18:10:00,25.5,17.1,28.76,WNW,292,19.7,19.7,70,0.00,,,0.00,VWS V14.01,2013-02-12 00:10:00,
2013-02-11 18:15:00,25.5,16.8,28.73,WNW,292,18.8,20.4,69,0.00,,,0.00,VWS V14.01,2013-02-12 00:15:00,
2013-02-11 18:20:00,25.3,16.6,28.73,WNW,292,13.2,17.7,69,0.00,,,0.00,VWS V14.01,2013-02-12 00:20:00,
2013-02-11 18:25:00,25.5,17.8,28.73,WNW,292,12.8,15.2,72,0.00,,,0.00,VWS V14.01,2013-02-12 00:25:00,
2013-02-11 18:30:00,25.5,17.4,28.73,WNW,292,12.8,17.2,71,0.00,,,0.00,VWS V14.01,2013-02-12 00:30:00,
2013-02-11 18:35:00,25.5,17.1,28.73,WNW,292,15.4,16.8,70,0.00,,,0.00,VWS V14.01,2013-02-12 00:35:00,
2013-02-11 18:40:00,25.5,16.8,28.73,WNW,292,14.8,19.2,69,0.00,,,0.00,VWS V14.01,2013-02-12 00:40:00,
2013-02-11 18:45:00,25.5,16.8,28.73,West,270,14.5,19.9,69,0.00,,,0.00,VWS V14.01,2013-02-12 00:45:00,
2013-02-11 18:50:00,25.5,16.4,28.73,WNW,292,17.5,21.3,68,0.00,,,0.00,VWS V14.01,2013-02-12 00:50:00,
2013-02-11 18:55:00,25.3,16.3,28.73,WNW,292,17.5,18.6,68,0.00,,,0.00,VWS V14.01,2013-02-12 00:55:00,
2013-02-11 19:00:00,25.3,16.3,28.73,WNW,292,15.7,17.9,68,0.00,,,0.00,VWS V14.01,2013-02-12 01:00:00,
2013-02-11 19:05:00,25.3,16.6,28.73,WNW,292,14.5,19.0,69,0.00,,,0.00,VWS V14.01,2013-02-12 01:05:00,
2013-02-11 19:10:00,25.3,16.9,28.73,WNW,292,12.8,17.7,70,0.00,,,0.00,VWS V14.01,2013-02-12 01:10:00,
2013-02-11 19:15:00,25.3,16.6,28.73,NW,315,13.2,15.4,69,0.00,,,0.00,VWS V14.01,2013-02-12 01:15:00,
2013-02-11 19:20:00,25.3,16.6,28.73,WNW,292,13.2,17.7,69,0.00,,,0.00,VWS V14.01,2013-02-12 01:20:00,
2013-02-11 19:25:00,25.2,16.4,28.73,WNW,292,15.2,18.1,69,0.00,,,0.00,VWS V14.01,2013-02-12 01:25:00,
2013-02-11 19:30:00,25.2,16.4,28.73,WNW,292,12.3,19.5,69,0.00,,,0.00,VWS V14.01,2013-02-12 01:30:00,
2013-02-11 19:35:00,25.2,16.8,28.73,WNW,292,10.5,17.5,70,0.00,,,0.00,VWS V14.01,2013-02-12 01:35:00,
2013-02-11 19:40:00,25.2,17.1,28.73,WNW,292,13.2,17.7,71,0.00,,,0.00,VWS V14.01,2013-02-12 01:40:00,
2013-02-11 19:45:00,25.2,17.1,28.73,WNW,292,8.1,15.4,71,0.00,,,0.00,VWS V14.01,2013-02-12 01:45:00,
2013-02-11 19:50:00,25.2,17.7,28.73,WNW,292,12.5,14.8,73,0.00,,,0.00,VWS V14.01,2013-02-12 01:50:00,
2013-02-11 19:55:00,25.2,17.4,28.73,WNW,292,10.1,15.2,72,0.00,,,0.00,VWS V14.01,2013-02-12 01:55:00,
2013-02-11 20:00:00,25.2,17.7,28.73,WNW,292,9.6,13.6,73,0.00,,,0.00,VWS V14.01,2013-02-12 02:00:00,
2013-02-11 20:05:00,25.2,18.0,28.73,WNW,292,15.2,15.2,74,0.00,,,0.00,VWS V14.01,2013-02-12 02:05:00,
2013-02-11 20:10:00,25.2,18.0,28.73,WNW,292,12.3,15.2,74,0.00,,,0.00,VWS V14.01,2013-02-12 02:10:00,
2013-02-11 20:15:00,25.2,18.0,28.73,WNW,292,10.3,17.9,74,0.00,,,0.00,VWS V14.01,2013-02-12 02:15:00,
2013-02-11 20:20:00,25.2,18.0,28.73,WNW,292,13.2,15.4,74,0.00,,,0.00,VWS V14.01,2013-02-12 02:20:00,
2013-02-11 20:25:00,25.2,17.7,28.73,WNW,292,18.8,18.8,73,0.00,,,0.00,VWS V14.01,2013-02-12 02:25:00,
2013-02-11 20:30:00,25.0,17.2,28.76,West,270,13.0,18.8,72,0.00,,,0.00,VWS V14.01,2013-02-12 02:30:00,
2013-02-11 20:35:00,24.8,16.4,28.76,WNW,292,16.8,19.9,70,0.00,,,0.00,VWS V14.01,2013-02-12 02:35:00,
2013-02-11 20:40:00,24.8,16.4,28.76,WSW,248,15.4,17.7,70,0.00,,,0.00,VWS V14.01,2013-02-12 02:40:00,
2013-02-11 20:45:00,24.8,16.8,28.76,WNW,292,10.7,17.5,71,0.00,,,0.00,VWS V14.01,2013-02-12 02:45:00,
2013-02-11 20:50:00,24.8,16.8,28.76,WNW,292,13.9,17.5,71,0.00,,,0.00,VWS V14.01,2013-02-12 02:50:00,
2013-02-11 20:55:00,24.6,16.2,28.76,WNW,292,17.5,21.3,70,0.00,,,0.00,VWS V14.01,2013-02-12 02:55:00,
2013-02-11 21:00:00,24.4,16.1,28.76,WNW,292,12.5,20.1,70,0.00,,,0.00,VWS V14.01,2013-02-12 03:00:00,
2013-02-11 21:05:00,24.4,15.4,28.76,WNW,292,17.5,17.5,68,0.00,,,0.00,VWS V14.01,2013-02-12 03:05:00,
2013-02-11 21:10:00,24.3,15.6,28.76,WNW,292,17.0,17.5,69,0.00,,,0.00,VWS V14.01,2013-02-12 03:10:00,
2013-02-11 21:15:00,24.3,15.2,28.76,WNW,292,15.9,17.7,68,0.00,,,0.00,VWS V14.01,2013-02-12 03:15:00,
2013-02-11 21:20:00,24.3,15.2,28.76,WNW,292,17.9,19.7,68,0.00,,,0.00,VWS V14.01,2013-02-12 03:20:00,
2013-02-11 21:25:00,24.4,16.1,28.76,WNW,292,10.5,17.9,70,0.00,,,0.00,VWS V14.01,2013-02-12 03:25:00,
2013-02-11 21:30:00,24.4,16.1,28.76,WNW,292,10.1,14.8,70,0.00,,,0.00,VWS V14.01,2013-02-12 03:30:00,
2013-02-11 21:35:00,24.4,16.7,28.76,WNW,292,11.2,13.2,72,0.00,,,0.00,VWS V14.01,2013-02-12 03:35:00,
2013-02-11 21:40:00,24.4,15.7,28.76,WNW,292,14.1,17.7,69,0.00,,,0.00,VWS V14.01,2013-02-12 03:40:00,
2013-02-11 21:45:00,24.4,15.7,28.76,WNW,292,12.3,17.7,69,0.00,,,0.00,VWS V14.01,2013-02-12 03:45:00,
2013-02-11 21:50:00,24.4,16.1,28.76,WNW,292,13.0,15.4,70,0.00,,,0.00,VWS V14.01,2013-02-12 03:50:00,
2013-02-11 21:55:00,24.4,15.4,28.76,NW,315,14.3,17.2,68,0.00,,,0.00,VWS V14.01,2013-02-12 03:55:00,
2013-02-11 22:00:00,24.4,15.4,28.76,WSW,248,17.2,17.2,68,0.00,,,0.00,VWS V14.01,2013-02-12 04:00:00,
2013-02-11 22:05:00,24.4,16.1,28.76,WNW,292,7.8,17.2,70,0.00,,,0.00,VWS V14.01,2013-02-12 04:05:00,
2013-02-11 22:10:00,24.4,16.1,28.76,WNW,292,11.0,13.0,70,0.00,,,0.00,VWS V14.01,2013-02-12 04:10:00,
2013-02-11 22:15:00,24.4,15.7,28.76,WNW,292,12.8,15.4,69,0.00,,,0.00,VWS V14.01,2013-02-12 04:15:00,
2013-02-11 22:20:00,24.4,16.4,28.76,WNW,292,12.3,12.8,71,0.00,,,0.00,VWS V14.01,2013-02-12 04:20:00,
2013-02-11 22:25:00,24.4,16.7,28.76,WNW,292,9.0,12.3,72,0.00,,,0.00,VWS V14.01,2013-02-12 04:25:00,
2013-02-11 22:30:00,24.4,15.1,28.76,WNW,292,14.8,18.6,67,0.00,,,0.00,VWS V14.01,2013-02-12 04:30:00,
2013-02-11 22:35:00,24.4,15.7,28.76,WNW,292,12.5,14.5,69,0.00,,,0.00,VWS V14.01,2013-02-12 04:35:00,
2013-02-11 22:40:00,24.4,15.4,28.76,WNW,292,13.2,17.7,68,0.00,,,0.00,VWS V14.01,2013-02-12 04:40:00,
2013-02-11 22:45:00,24.4,15.4,28.76,WNW,292,14.8,15.2,68,0.00,,,0.00,VWS V14.01,2013-02-12 04:45:00,
2013-02-11 22:50:00,24.4,15.4,28.76,WNW,292,13.9,17.5,68,0.00,,,0.00,VWS V14.01,2013-02-12 04:50:00,
2013-02-11 22:55:00,24.8,15.4,28.79,WNW,292,12.5,17.0,67,0.00,,,0.00,VWS V14.01,2013-02-12 04:55:00,
2013-02-11 23:00:00,24.4,15.7,28.76,WNW,292,12.8,15.2,69,0.00,,,0.00,VWS V14.01,2013-02-12 05:00:00,
2013-02-11 23:05:00,24.4,15.4,28.76,WNW,292,10.3,19.2,68,0.00,,,0.00,VWS V14.01,2013-02-12 05:05:00,
2013-02-11 23:10:00,24.4,15.7,28.76,WNW,292,10.7,13.2,69,0.00,,,0.00,VWS V14.01,2013-02-12 05:10:00,
2013-02-11 23:15:00,24.4,16.1,28.76,West,270,10.1,15.7,70,0.00,,,0.00,VWS V14.01,2013-02-12 05:15:00,
2013-02-11 23:20:00,24.4,15.4,28.76,WNW,292,10.7,13.4,68,0.00,,,0.00,VWS V14.01,2013-02-12 05:20:00,
2013-02-11 23:25:00,24.4,15.4,28.76,WNW,292,11.0,17.7,68,0.00,,,0.00,VWS V14.01,2013-02-12 05:25:00,
2013-02-11 23:30:00,24.4,15.1,28.76,WNW,292,14.8,18.6,67,0.00,,,0.00,VWS V14.01,2013-02-12 05:30:00,
2013-02-11 23:35:00,24.6,15.2,28.76,WNW,292,14.5,17.0,67,0.00,,,0.00,VWS V14.01,2013-02-12 05:35:00,
2013-02-11 23:40:00,24.6,15.6,28.76,WNW,292,10.7,17.7,68,0.00,,,0.00,VWS V14.01,2013-02-12 05:40:00,
2013-02-11 23:45:00,24.6,15.6,28.79,NW,315,10.3,15.2,68,0.00,,,0.00,VWS V14.01,2013-02-12 05:45:00,
2013-02-11 23:50:00,24.6,16.2,28.79,WNW,292,17.0,17.0,70,0.00,,,0.00,VWS V14.01,2013-02-12 05:50:00,
2013-02-11 23:55:00,24.8,15.4,28.79,WNW,292,12.5,17.0,67,0.00,,,0.00,VWS V14.01,2013-02-12 05:55:00,